Bayonne — WDB4786 — position and weather

sailwx.info

Track history (hours):
 
Tides and Currents Weather Stations Pressure Air Temp Water Temp Dewpoint Dewpoint Depression Visibility Wind Speed Wind Dir Waves Ship Positions

Bayonne

Owner: PORT IMPERIAL FERRY CORP, WEEHAWKEN, NJ. More information available from US FCC via Universal Licensing System and Coast Guard Vessel Documentation Center.

Last reported at 2017-Oct-21 19:00 UTC. Time now 2017-Oct-23 02:43 UTC.
Position N 40°47' W 074°01'.

Length 26 m.

Type: Passenger vessel. MMSI: 366902330.

Date/timePositionNaut miles runAvg speedWind from/ knotsBaromVisibWave heightAir tempDewpointWater temp
2017-Oct-21 19:00N 40°47' W 074°01'1 1.9
2017-Oct-21 18:30N 40°46' W 074°00'1 1.9
2017-Oct-21 18:00N 40°47' W 074°01'0 0.0
2017-Oct-21 00:25N 40°47' W 074°01'410.6
2017-Oct-21 00:00N 40°42' W 074°00'3 7.0
2017-Oct-20 23:31N 40°46' W 074°01'2 4.5
2017-Oct-20 23:01N 40°43' W 074°01'0 0.9
2017-Oct-20 22:30N 40°43' W 074°01'4 7.2
2017-Oct-20 22:00N 40°47' W 074°01'4 8.8
2017-Oct-20 21:30N 40°42' W 074°00'2 4.6
2017-Oct-20 21:00N 40°44' W 074°01'1 2.0
2017-Oct-20 20:30N 40°45' W 074°01'3 6.5
2017-Oct-20 20:00N 40°42' W 074°00'4 0.8
2017-Oct-20 14:45N 40°46' W 074°01'0 0.4
2017-Oct-20 14:00N 40°47' W 074°01'4 7.4
2017-Oct-20 13:31N 40°43' W 074°01'1 2.3
2017-Oct-20 13:01N 40°42' W 074°00'3 6.7
2017-Oct-20 12:31N 40°46' W 074°01'1 2.0
2017-Oct-20 12:00N 40°47' W 074°01'4 8.1
2017-Oct-20 11:30N 40°43' W 074°01'1 2.2
2017-Oct-20 11:01N 40°42' W 074°00'4 7.2
2017-Oct-20 10:30N 40°46' W 074°01'1 1.8
2017-Oct-20 10:00N 40°47' W 074°01'0 0.0
2017-Oct-20 09:30N 40°47' W 074°01'0 0.0
2017-Oct-20 00:23N 40°47' W 074°01'411.6
2017-Oct-20 00:00N 40°42' W 074°00'4 8.6
2017-Oct-19 23:30N 40°47' W 074°01'5 9.6
2017-Oct-19 23:01N 40°42' W 074°01'1 2.0
2017-Oct-19 22:31N 40°43' W 074°01'4 7.3
2017-Oct-19 22:00N 40°47' W 074°01'4 8.9
2017-Oct-19 21:31N 40°42' W 074°00'3 5.8
2017-Oct-19 21:00N 40°45' W 074°01'0 0.2
2017-Oct-19 20:30N 40°45' W 074°01'3 5.9
2017-Oct-19 20:00N 40°42' W 074°00'4 0.8
2017-Oct-19 14:45N 40°46' W 074°01'417.4
2017-Oct-19 14:31N 40°42' W 074°01'5 8.7
2017-Oct-19 13:59N 40°47' W 074°01'3 6.1
2017-Oct-19 13:31N 40°44' W 074°01'2 3.6
2017-Oct-19 13:01N 40°42' W 074°00'1 2.8
2017-Oct-19 12:30N 40°43' W 074°01'3 6.7
2017-Oct-19 12:00N 40°47' W 074°01'4 7.4
2017-Oct-19 11:31N 40°43' W 074°01'1 2.6
2017-Oct-19 11:01N 40°42' W 074°00'4 7.1
2017-Oct-19 10:30N 40°45' W 074°01'1 2.1
2017-Oct-19 10:00N 40°47' W 074°01'0 0.0
2017-Oct-19 09:30N 40°47' W 074°01'0 0.0
2017-Oct-19 09:00N 40°47' W 074°01'0 0.0
2017-Oct-19 00:21N 40°47' W 074°01'413.0
2017-Oct-19 00:01N 40°42' W 074°00'4 8.9
2017-Oct-18 23:30N 40°47' W 074°01'5 9.4
2017-Oct-18 23:00N 40°42' W 074°01'1 1.9
2017-Oct-18 22:30N 40°43' W 074°01'4 7.2
2017-Oct-18 22:00N 40°47' W 074°01'4 9.0
2017-Oct-18 21:30N 40°42' W 074°00'3 6.1
2017-Oct-18 21:00N 40°45' W 074°01'0 0.6
2017-Oct-18 20:30N 40°45' W 074°01'3 5.6
2017-Oct-18 20:01N 40°42' W 074°00'4 8.2
2017-Oct-18 19:30N 40°46' W 074°01'0 0.0
2017-Oct-18 19:00N 40°46' W 074°01'0 0.0
2017-Oct-18 14:43N 40°46' W 074°01'0 0.4
2017-Oct-18 14:00N 40°47' W 074°01'3 6.6
2017-Oct-18 13:30N 40°43' W 074°01'1 2.7
2017-Oct-18 13:01N 40°42' W 074°00'3 5.4
2017-Oct-18 12:30N 40°45' W 074°01'2 3.3
2017-Oct-18 12:00N 40°47' W 074°01'4 7.5
2017-Oct-18 11:31N 40°43' W 074°01'1 1.7
2017-Oct-18 11:01N 40°42' W 074°01'3 5.9
2017-Oct-18 10:30N 40°45' W 074°01'2 3.0
2017-Oct-18 10:00N 40°47' W 074°01'0 0.0
2017-Oct-18 00:21N 40°47' W 074°01'413.0
2017-Oct-18 00:00N 40°42' W 074°00'4 8.7
2017-Oct-17 23:30N 40°47' W 074°01'5 9.6
2017-Oct-17 23:01N 40°42' W 074°01'1 2.0
2017-Oct-17 22:31N 40°43' W 074°01'3 5.8
2017-Oct-17 22:00N 40°46' W 074°01'4 7.2
2017-Oct-17 21:30N 40°42' W 074°00'3 6.2
2017-Oct-17 21:00N 40°45' W 074°01'0 0.6
2017-Oct-17 20:30N 40°45' W 074°01'3 6.1
2017-Oct-17 20:00N 40°42' W 074°00'4 0.8
2017-Oct-17 14:49N 40°46' W 074°01'414.4
2017-Oct-17 14:30N 40°42' W 074°01'5 9.5
2017-Oct-17 14:00N 40°47' W 074°01'4 7.1
2017-Oct-17 13:31N 40°43' W 074°01'1 2.5
2017-Oct-17 13:00N 40°42' W 074°00'1 2.9
2017-Oct-17 12:31N 40°44' W 074°01'3 6.2
2017-Oct-17 12:00N 40°47' W 074°01'4 7.3
2017-Oct-17 11:31N 40°43' W 074°01'1 2.3
2017-Oct-17 11:00N 40°42' W 074°00'3 5.1
2017-Oct-17 10:30N 40°45' W 074°01'2 3.6
2017-Oct-17 10:00N 40°47' W 074°01'0 0.0
2017-Oct-17 00:21N 40°46' W 074°00'412.6
2017-Oct-17 00:00N 40°42' W 074°00'4 8.7
2017-Oct-16 23:30N 40°47' W 074°01'5 9.6
2017-Oct-16 23:01N 40°42' W 074°01'1 2.0
2017-Oct-16 22:31N 40°43' W 074°01'4 7.3
2017-Oct-16 22:00N 40°47' W 074°01'4 8.9
2017-Oct-16 21:30N 40°42' W 074°00'3 5.9
2017-Oct-16 21:00N 40°45' W 074°01'0 0.4
2017-Oct-16 20:31N 40°45' W 074°01'3 5.6
2017-Oct-16 20:00N 40°42' W 074°00'4 0.8
2017-Oct-16 14:48N 40°46' W 074°01'515.5
2017-Oct-16 14:31N 40°42' W 074°01'2 1.5
2017-Oct-16 13:31N 40°43' W 074°01'1 2.6
2017-Oct-16 13:00N 40°42' W 074°00'1 2.6
2017-Oct-16 12:31N 40°43' W 074°01'3 6.8
2017-Oct-16 12:00N 40°47' W 074°01'3 6.0
2017-Oct-16 11:31N 40°44' W 074°01'2 3.3
2017-Oct-16 11:00N 40°42' W 074°00'2 4.8
2017-Oct-16 10:31N 40°45' W 074°01'2 4.2
2017-Oct-16 10:00N 40°47' W 074°01'0 0.0
2017-Oct-16 09:30N 40°47' W 074°01'0 0.0
2017-Oct-16 09:00N 40°47' W 074°01'  
2017-Oct-14 00:23N 40°47' W 074°01'411.3
2017-Oct-14 00:00N 40°42' W 074°00'4 8.6
2017-Oct-13 23:29N 40°47' W 074°01'5 9.5
2017-Oct-13 23:00N 40°42' W 074°01'1 2.0
2017-Oct-13 22:30N 40°43' W 074°01'4 7.5
2017-Oct-13 22:00N 40°47' W 074°01'4 8.6
2017-Oct-13 21:30N 40°42' W 074°00'2 4.3
2017-Oct-13 21:01N 40°44' W 074°01'2 3.9
2017-Oct-13 20:30N 40°46' W 074°00'4 7.8
2017-Oct-13 20:00N 40°42' W 074°00'4 0.8
2017-Oct-13 14:47N 40°46' W 074°01'415.5
2017-Oct-13 14:30N 40°42' W 074°01'5 9.3
2017-Oct-13 14:00N 40°47' W 074°01'4 7.6
2017-Oct-13 13:30N 40°43' W 074°01'1 2.3
2017-Oct-13 13:00N 40°42' W 074°00'3 5.3
2017-Oct-13 12:30N 40°45' W 074°01'2 4.1
2017-Oct-13 12:00N 40°47' W 074°01'4 8.6
2017-Oct-13 11:30N 40°42' W 074°01'1 1.5
2017-Oct-13 11:00N 40°42' W 074°00'3 6.6
2017-Oct-13 10:30N 40°45' W 074°01'1 2.7
2017-Oct-13 10:00N 40°47' W 074°01'0 0.0
2017-Oct-13 02:55N 40°46' W 074°01'0 0.0
2017-Oct-13 02:30N 40°46' W 074°01'0 0.0
2017-Oct-13 00:34N 40°46' W 074°01'0 2.6
2017-Oct-13 00:30N 40°46' W 074°00'4 8.4
2017-Oct-13 00:00N 40°42' W 074°00'3 6.7
2017-Oct-12 23:30N 40°46' W 074°01'3 5.7
2017-Oct-12 23:00N 40°43' W 074°01'0 0.6
2017-Oct-12 22:30N 40°43' W 074°01'3 6.2
2017-Oct-12 22:00N 40°46' W 074°01'4 7.8
2017-Oct-12 21:30N 40°42' W 074°00'3 5.8
2017-Oct-12 21:00N 40°45' W 074°01'2 2.1
2017-Oct-12 20:00N 40°43' W 074°01'3 0.6
2017-Oct-12 14:51N 40°46' W 074°01'412.4
2017-Oct-12 14:30N 40°42' W 074°00'5 9.5
2017-Oct-12 14:00N 40°47' W 074°01'3 6.5
2017-Oct-12 13:30N 40°43' W 074°01'2 3.2
2017-Oct-12 13:00N 40°42' W 074°01'3 6.6
2017-Oct-12 12:30N 40°45' W 074°01'1 2.9
2017-Oct-12 12:00N 40°47' W 074°01'4 7.9
2017-Oct-12 11:30N 40°43' W 074°01'1 1.8
2017-Oct-12 11:00N 40°42' W 074°01'4 7.1
2017-Oct-12 10:30N 40°45' W 074°01'1 2.3
2017-Oct-12 10:00N 40°47' W 074°01'0 0.0
2017-Oct-12 00:28N 40°47' W 074°01'4 9.4
2017-Oct-12 00:00N 40°42' W 074°00'3 6.1
2017-Oct-11 23:30N 40°45' W 074°01'1 1.1
2017-Oct-11 23:00N 40°45' W 074°01'2 4.1
2017-Oct-11 22:30N 40°43' W 074°01'4 8.0
2017-Oct-11 22:00N 40°47' W 074°01'4 8.4
2017-Oct-11 21:29N 40°42' W 074°00'2 4.8
2017-Oct-11 21:00N 40°44' W 074°01'1 1.9
2017-Oct-11 20:31N 40°45' W 074°01'3 5.6
2017-Oct-11 20:00N 40°43' W 074°01'  
Track history (hours):
 
Tides and Currents Weather Stations Pressure Air Temp Water Temp Dewpoint Dewpoint Depression Visibility Wind Speed Wind Dir Waves Ship Positions

Bayonne

Owner: PORT IMPERIAL FERRY CORP, WEEHAWKEN, NJ. More information available from US FCC via Universal Licensing System and Coast Guard Vessel Documentation Center.

Last reported at 2017-Oct-21 19:00 UTC. Time now 2017-Oct-23 02:43 UTC.
Position N 40°47' W 074°01'.

Length 26 m.

Type: Passenger vessel. MMSI: 366902330.

Date/timePositionNaut miles runAvg speedWind from/ knotsBaromVisibWave heightAir tempDewpointWater temp
2017-Oct-21 19:00N 40°47' W 074°01'1 1.9
2017-Oct-21 18:30N 40°46' W 074°00'1 1.9
2017-Oct-21 18:00N 40°47' W 074°01'0 0.0
2017-Oct-21 00:25N 40°47' W 074°01'410.6
2017-Oct-21 00:00N 40°42' W 074°00'3 7.0
2017-Oct-20 23:31N 40°46' W 074°01'2 4.5
2017-Oct-20 23:01N 40°43' W 074°01'0 0.9
2017-Oct-20 22:30N 40°43' W 074°01'4 7.2
2017-Oct-20 22:00N 40°47' W 074°01'4 8.8
2017-Oct-20 21:30N 40°42' W 074°00'2 4.6
2017-Oct-20 21:00N 40°44' W 074°01'1 2.0
2017-Oct-20 20:30N 40°45' W 074°01'3 6.5
2017-Oct-20 20:00N 40°42' W 074°00'4 0.8
2017-Oct-20 14:45N 40°46' W 074°01'0 0.4
2017-Oct-20 14:00N 40°47' W 074°01'4 7.4
2017-Oct-20 13:31N 40°43' W 074°01'1 2.3
2017-Oct-20 13:01N 40°42' W 074°00'3 6.7
2017-Oct-20 12:31N 40°46' W 074°01'1 2.0
2017-Oct-20 12:00N 40°47' W 074°01'4 8.1
2017-Oct-20 11:30N 40°43' W 074°01'1 2.2
2017-Oct-20 11:01N 40°42' W 074°00'4 7.2
2017-Oct-20 10:30N 40°46' W 074°01'1 1.8
2017-Oct-20 10:00N 40°47' W 074°01'0 0.0
2017-Oct-20 09:30N 40°47' W 074°01'0 0.0
2017-Oct-20 00:23N 40°47' W 074°01'411.6
2017-Oct-20 00:00N 40°42' W 074°00'4 8.6
2017-Oct-19 23:30N 40°47' W 074°01'5 9.6
2017-Oct-19 23:01N 40°42' W 074°01'1 2.0
2017-Oct-19 22:31N 40°43' W 074°01'4 7.3
2017-Oct-19 22:00N 40°47' W 074°01'4 8.9
2017-Oct-19 21:31N 40°42' W 074°00'3 5.8
2017-Oct-19 21:00N 40°45' W 074°01'0 0.2
2017-Oct-19 20:30N 40°45' W 074°01'3 5.9
2017-Oct-19 20:00N 40°42' W 074°00'4 0.8
2017-Oct-19 14:45N 40°46' W 074°01'417.4
2017-Oct-19 14:31N 40°42' W 074°01'5 8.7
2017-Oct-19 13:59N 40°47' W 074°01'3 6.1
2017-Oct-19 13:31N 40°44' W 074°01'2 3.6
2017-Oct-19 13:01N 40°42' W 074°00'1 2.8
2017-Oct-19 12:30N 40°43' W 074°01'3 6.7
2017-Oct-19 12:00N 40°47' W 074°01'4 7.4
2017-Oct-19 11:31N 40°43' W 074°01'1 2.6
2017-Oct-19 11:01N 40°42' W 074°00'4 7.1
2017-Oct-19 10:30N 40°45' W 074°01'1 2.1
2017-Oct-19 10:00N 40°47' W 074°01'0 0.0
2017-Oct-19 09:30N 40°47' W 074°01'0 0.0
2017-Oct-19 09:00N 40°47' W 074°01'0 0.0
2017-Oct-19 00:21N 40°47' W 074°01'413.0
2017-Oct-19 00:01N 40°42' W 074°00'4 8.9
2017-Oct-18 23:30N 40°47' W 074°01'5 9.4
2017-Oct-18 23:00N 40°42' W 074°01'1 1.9
2017-Oct-18 22:30N 40°43' W 074°01'4 7.2
2017-Oct-18 22:00N 40°47' W 074°01'4 9.0
2017-Oct-18 21:30N 40°42' W 074°00'3 6.1
2017-Oct-18 21:00N 40°45' W 074°01'0 0.6
2017-Oct-18 20:30N 40°45' W 074°01'3 5.6
2017-Oct-18 20:01N 40°42' W 074°00'4 8.2
2017-Oct-18 19:30N 40°46' W 074°01'0 0.0
2017-Oct-18 19:00N 40°46' W 074°01'0 0.0
2017-Oct-18 14:43N 40°46' W 074°01'0 0.4
2017-Oct-18 14:00N 40°47' W 074°01'3 6.6
2017-Oct-18 13:30N 40°43' W 074°01'1 2.7
2017-Oct-18 13:01N 40°42' W 074°00'3 5.4
2017-Oct-18 12:30N 40°45' W 074°01'2 3.3
2017-Oct-18 12:00N 40°47' W 074°01'4 7.5
2017-Oct-18 11:31N 40°43' W 074°01'1 1.7
2017-Oct-18 11:01N 40°42' W 074°01'3 5.9
2017-Oct-18 10:30N 40°45' W 074°01'2 3.0
2017-Oct-18 10:00N 40°47' W 074°01'0 0.0
2017-Oct-18 00:21N 40°47' W 074°01'413.0
2017-Oct-18 00:00N 40°42' W 074°00'4 8.7
2017-Oct-17 23:30N 40°47' W 074°01'5 9.6
2017-Oct-17 23:01N 40°42' W 074°01'1 2.0
2017-Oct-17 22:31N 40°43' W 074°01'3 5.8
2017-Oct-17 22:00N 40°46' W 074°01'4 7.2
2017-Oct-17 21:30N 40°42' W 074°00'3 6.2
2017-Oct-17 21:00N 40°45' W 074°01'0 0.6
2017-Oct-17 20:30N 40°45' W 074°01'3 6.1
2017-Oct-17 20:00N 40°42' W 074°00'4 0.8
2017-Oct-17 14:49N 40°46' W 074°01'414.4
2017-Oct-17 14:30N 40°42' W 074°01'5 9.5
2017-Oct-17 14:00N 40°47' W 074°01'4 7.1
2017-Oct-17 13:31N 40°43' W 074°01'1 2.5
2017-Oct-17 13:00N 40°42' W 074°00'1 2.9
2017-Oct-17 12:31N 40°44' W 074°01'3 6.2
2017-Oct-17 12:00N 40°47' W 074°01'4 7.3
2017-Oct-17 11:31N 40°43' W 074°01'1 2.3
2017-Oct-17 11:00N 40°42' W 074°00'3 5.1
2017-Oct-17 10:30N 40°45' W 074°01'2 3.6
2017-Oct-17 10:00N 40°47' W 074°01'0 0.0
2017-Oct-17 00:21N 40°46' W 074°00'412.6
2017-Oct-17 00:00N 40°42' W 074°00'4 8.7
2017-Oct-16 23:30N 40°47' W 074°01'5 9.6
2017-Oct-16 23:01N 40°42' W 074°01'1 2.0
2017-Oct-16 22:31N 40°43' W 074°01'4 7.3
2017-Oct-16 22:00N 40°47' W 074°01'4 8.9
2017-Oct-16 21:30N 40°42' W 074°00'3 5.9
2017-Oct-16 21:00N 40°45' W 074°01'0 0.4
2017-Oct-16 20:31N 40°45' W 074°01'3 5.6
2017-Oct-16 20:00N 40°42' W 074°00'4 0.8
2017-Oct-16 14:48N 40°46' W 074°01'515.5
2017-Oct-16 14:31N 40°42' W 074°01'2 1.5
2017-Oct-16 13:31N 40°43' W 074°01'1 2.6
2017-Oct-16 13:00N 40°42' W 074°00'1 2.6
2017-Oct-16 12:31N 40°43' W 074°01'3 6.8
2017-Oct-16 12:00N 40°47' W 074°01'3 6.0
2017-Oct-16 11:31N 40°44' W 074°01'2 3.3
2017-Oct-16 11:00N 40°42' W 074°00'2 4.8
2017-Oct-16 10:31N 40°45' W 074°01'2 4.2
2017-Oct-16 10:00N 40°47' W 074°01'0 0.0
2017-Oct-16 09:30N 40°47' W 074°01'0 0.0
2017-Oct-16 09:00N 40°47' W 074°01'  
2017-Oct-14 00:23N 40°47' W 074°01'411.3
2017-Oct-14 00:00N 40°42' W 074°00'4 8.6
2017-Oct-13 23:29N 40°47' W 074°01'5 9.5
2017-Oct-13 23:00N 40°42' W 074°01'1 2.0
2017-Oct-13 22:30N 40°43' W 074°01'4 7.5
2017-Oct-13 22:00N 40°47' W 074°01'4 8.6
2017-Oct-13 21:30N 40°42' W 074°00'2 4.3
2017-Oct-13 21:01N 40°44' W 074°01'2 3.9
2017-Oct-13 20:30N 40°46' W 074°00'4 7.8
2017-Oct-13 20:00N 40°42' W 074°00'4 0.8
2017-Oct-13 14:47N 40°46' W 074°01'415.5
2017-Oct-13 14:30N 40°42' W 074°01'5 9.3
2017-Oct-13 14:00N 40°47' W 074°01'4 7.6
2017-Oct-13 13:30N 40°43' W 074°01'1 2.3
2017-Oct-13 13:00N 40°42' W 074°00'3 5.3
2017-Oct-13 12:30N 40°45' W 074°01'2 4.1
2017-Oct-13 12:00N 40°47' W 074°01'4 8.6
2017-Oct-13 11:30N 40°42' W 074°01'1 1.5
2017-Oct-13 11:00N 40°42' W 074°00'3 6.6
2017-Oct-13 10:30N 40°45' W 074°01'1 2.7
2017-Oct-13 10:00N 40°47' W 074°01'0 0.0
2017-Oct-13 02:55N 40°46' W 074°01'0 0.0
2017-Oct-13 02:30N 40°46' W 074°01'0 0.0
2017-Oct-13 00:34N 40°46' W 074°01'0 2.6
2017-Oct-13 00:30N 40°46' W 074°00'4 8.4
2017-Oct-13 00:00N 40°42' W 074°00'3 6.7
2017-Oct-12 23:30N 40°46' W 074°01'3 5.7
2017-Oct-12 23:00N 40°43' W 074°01'0 0.6
2017-Oct-12 22:30N 40°43' W 074°01'3 6.2
2017-Oct-12 22:00N 40°46' W 074°01'4 7.8
2017-Oct-12 21:30N 40°42' W 074°00'3 5.8
2017-Oct-12 21:00N 40°45' W 074°01'2 2.1
2017-Oct-12 20:00N 40°43' W 074°01'3 0.6
2017-Oct-12 14:51N 40°46' W 074°01'412.4
2017-Oct-12 14:30N 40°42' W 074°00'5 9.5
2017-Oct-12 14:00N 40°47' W 074°01'3 6.5
2017-Oct-12 13:30N 40°43' W 074°01'2 3.2
2017-Oct-12 13:00N 40°42' W 074°01'3 6.6
2017-Oct-12 12:30N 40°45' W 074°01'1 2.9
2017-Oct-12 12:00N 40°47' W 074°01'4 7.9
2017-Oct-12 11:30N 40°43' W 074°01'1 1.8
2017-Oct-12 11:00N 40°42' W 074°01'4 7.1
2017-Oct-12 10:30N 40°45' W 074°01'1 2.3
2017-Oct-12 10:00N 40°47' W 074°01'0 0.0
2017-Oct-12 00:28N 40°47' W 074°01'4 9.4
2017-Oct-12 00:00N 40°42' W 074°00'3 6.1
2017-Oct-11 23:30N 40°45' W 074°01'1 1.1
2017-Oct-11 23:00N 40°45' W 074°01'2 4.1
2017-Oct-11 22:30N 40°43' W 074°01'4 8.0
2017-Oct-11 22:00N 40°47' W 074°01'4 8.4
2017-Oct-11 21:29N 40°42' W 074°00'2 4.8
2017-Oct-11 21:00N 40°44' W 074°01'1 1.9
2017-Oct-11 20:31N 40°45' W 074°01'3 5.6
2017-Oct-11 20:00N 40°43' W 074°01'  

Dump ship's entire track history